Relevés horaires Schaffen (Belgique)


Relevés horaires à Schaffen - Mercredi 20 Janv. 2021
Heure UTC1 Température [°C] Vent [km/h] Hum. [%] Pres.4 [hPa] Visi. [Km] Nébu. [octa] Préc.5 [mm] Cond.
2m. Res. Ros. Dir.2 Vit. Moy. Raf.3
23:00 10.8 8.7 4.5 S 16.7 -- 29.6 65 990(-3.0/3h) 20 -- -- --
22:00 11.3 9.3 4.5 S 16.7 -- 29.6 63 990.9(-2.6/3h) 20 -- -- --
21:00 10.2 8.7 4.9 S 11.1 -- 20.4 70 992.1(-2.3/3h) 20 -- -- NA
20:00 9.7 7.8 4.7 S 13.0 -- 20.4 71 993.1(-1.6/3h) 20 -- -- Il y a de la pluie faible et continue à la station au moment de l'observation
19:00 9.9 8.6 2.8 S 9.3 -- 16.7 61 993.7(-1.2/3h) 20 -- -- --
18:00 9.8 8.2 2.1 S 11.1 -- 24.1 59 994.6(-1.2/3h) 20 -- 0.1/12h
NA
17:00 10.7 9 1.6 S 13.0 -- 24.1 53 994.7(-1.5/3h) 20 -- -- --
16:00 10.5 8.8 1.7 S 13.0 -- 20.4 54 994.9(-2.0/3h) 20 -- -- --
15:00 10.9 9.3 1.1 S 13.0 -- 24.1 51 995.7(-2.5/3h) 20 -- -- NA
14:00 10.2 8.4 2.0 S 13.0 -- 22.2 57 996.3(-2.7/3h) 20 -- -- --
13:00 9.7 7.8 1.1 S 13.0 -- 22.2 55 997(-2.7/3h) 20 -- -- NA
12:00 9.8 7.9 1.2 SSO 13.0 -- 24.1 55 998.4(-1.7/3h) 20 -- 0.1/6h
NA
11:00 9.0 7 0.8 S 13.0 -- 22.2 56 999.1(-1.2/3h) 20 -- -- --
10:00 8.3 6.1 0.6 SSO 13.0 -- 22.2 58 999.8(-1.0/3h) 20 -- -- --
09:00 7.5 5.1 1.5 S 13.0 -- 22.2 66 1000.2(-0.9/3h) 20 -- -- NA
08:00 7.6 5.6 3.3 S 11.1 -- 22.2 74 1000.3(-1.1/3h) 20 -- -- NA
07:00 7.3 5.2 3.9 SSO 11.1 -- 22.2 79 1000.7(-1.0/3h) 20 -- -- NA
06:00 7.3 5.2 3.7 SSO 11.1 -- 22.2 78 1001(-1.7/3h) 18 -- 0.1/12h
Il y a de la pluie faible et continue à la station au moment de l'observation
05:00 7.6 5.2 2.5 SSO 13.0 -- 20.4 70 1001.5(-2.0/3h) 20 -- -- --
04:00 7.1 5 2.7 S 11.1 -- 22.2 74 1001.8(-1.9/3h) 20 -- -- NA
03:00 7.4 5.3 3.1 SSO 11.1 -- 22.2 74 1002.8(-1.5/3h) 20 -- -- NA
02:00 6.8 4.6 2.8 S 11.1 -- 22.2 76 1003.6(-1.7/3h) 20 -- -- --
01:00 6.6 3.8 2.7 SSO 14.8 -- 22.2 76 1003.8(-2.1/3h) 20 -- -- --
00:00 6.0 3.6 2.5 SSO 11.1 -- 24.1 78 1004.5(-2.4/3h) 20 -- -- --

1 Coordinated Universal Time. Actuellement il est 13:00 locale et 12:00 UTC.

2 Le vent souffle depuis la direction indiquée vers la direction oposée.

3 Les rafales max. sont disponible 40 min après l'heure du relevé.

4 Pour les stations d'altitude (plus de 600m) le géopotentiel du niveau le plus proche de la pression obligatoire est indiqué.

5 Les stations disposant d'un diffuseur peuvent indiquer "trace". Cela signifie que des précipitations ont touchés le sol mais que la quantité est inférieure à 0.1 mm.

Récapitulatif de la journée
Température [°C] Vent [km/h] Ensoleillement4 [h] Precipitations totale5 [mm] Pression [Hpa]
Min1 Max.2 Moy.3 Max. Min Max.
6.0 11.0 0 29.6 0 h 0 min 0 990.0 1004.5

1 Température minimale relevée entre 18:00 UTC la veille et 18:00 UTC le jour donné.

2 Température maximale relevée entre 06:00 UTC le jour donné et 06:00 UTC le lendemain.

3 Vent moyen de la journée basé sur les relevés horaires.

4 Ensoleillement en heures relevé entre 06:00 UTC la veille et 06:00 UTC le jour donné.

5 Précipitations totales tombées entre 06:00 UTC la jour donné et 06:00 UTC le lendemain.

Graphiques horaires